sensor_id;sensor_type;location;lat;lon;timestamp;P1;durP1;ratioP1;P2;durP2;ratioP2
27543;SDS011;17996;51.056;3.656;2022-08-21T00:01:13;10.10;;;3.55;;
27543;SDS011;17996;51.056;3.656;2022-08-21T00:03:41;12.98;;;4.05;;
27543;SDS011;17996;51.056;3.656;2022-08-21T00:06:07;13.20;;;4.07;;
27543;SDS011;17996;51.056;3.656;2022-08-21T00:08:33;12.13;;;4.18;;
27543;SDS011;17996;51.056;3.656;2022-08-21T00:10:59;14.98;;;4.30;;
27543;SDS011;17996;51.056;3.656;2022-08-21T00:13:25;14.98;;;3.90;;
27543;SDS011;17996;51.056;3.656;2022-08-21T00:15:51;10.35;;;3.47;;
27543;SDS011;17996;51.056;3.656;2022-08-21T00:18:17;10.23;;;3.30;;
27543;SDS011;17996;51.056;3.656;2022-08-21T00:20:44;11.65;;;3.63;;
27543;SDS011;17996;51.056;3.656;2022-08-21T00:23:10;12.57;;;4.07;;
27543;SDS011;17996;51.056;3.656;2022-08-21T00:25:37;10.23;;;3.83;;
27543;SDS011;17996;51.056;3.656;2022-08-21T00:28:03;12.38;;;4.10;;
27543;SDS011;17996;51.056;3.656;2022-08-21T00:30:30;9.90;;;3.65;;
27543;SDS011;17996;51.056;3.656;2022-08-21T00:32:56;9.98;;;3.63;;
27543;SDS011;17996;51.056;3.656;2022-08-21T00:35:24;9.57;;;3.65;;
27543;SDS011;17996;51.056;3.656;2022-08-21T00:37:55;13.80;;;4.05;;
27543;SDS011;17996;51.056;3.656;2022-08-21T00:40:24;13.43;;;4.10;;
27543;SDS011;17996;51.056;3.656;2022-08-21T00:42:52;8.77;;;3.22;;
27543;SDS011;17996;51.056;3.656;2022-08-21T00:45:18;9.68;;;4.15;;
27543;SDS011;17996;51.056;3.656;2022-08-21T00:47:45;11.05;;;4.10;;
27543;SDS011;17996;51.056;3.656;2022-08-21T00:50:11;13.73;;;4.20;;
27543;SDS011;17996;51.056;3.656;2022-08-21T00:52:37;12.57;;;3.50;;
27543;SDS011;17996;51.056;3.656;2022-08-21T00:55:05;11.35;;;3.60;;
27543;SDS011;17996;51.056;3.656;2022-08-21T00:57:34;9.07;;;3.40;;
27543;SDS011;17996;51.056;3.656;2022-08-21T01:00:15;13.05;;;3.67;;
27543;SDS011;17996;51.056;3.656;2022-08-21T01:02:44;11.75;;;3.35;;
27543;SDS011;17996;51.056;3.656;2022-08-21T01:05:10;14.52;;;3.30;;
27543;SDS011;17996;51.056;3.656;2022-08-21T01:07:37;11.10;;;3.20;;
27543;SDS011;17996;51.056;3.656;2022-08-21T01:10:03;13.45;;;3.45;;
27543;SDS011;17996;51.056;3.656;2022-08-21T01:12:30;11.50;;;3.70;;
27543;SDS011;17996;51.056;3.656;2022-08-21T01:14:57;14.98;;;3.60;;
27543;SDS011;17996;51.056;3.656;2022-08-21T01:17:23;16.50;;;4.30;;
27543;SDS011;17996;51.056;3.656;2022-08-21T01:19:49;8.75;;;3.00;;
27543;SDS011;17996;51.056;3.656;2022-08-21T01:22:15;11.05;;;3.63;;
27543;SDS011;17996;51.056;3.656;2022-08-21T01:24:41;7.85;;;3.33;;
27543;SDS011;17996;51.056;3.656;2022-08-21T01:27:06;8.15;;;3.17;;
27543;SDS011;17996;51.056;3.656;2022-08-21T01:29:40;11.38;;;3.38;;
27543;SDS011;17996;51.056;3.656;2022-08-21T01:32:11;14.43;;;3.65;;
27543;SDS011;17996;51.056;3.656;2022-08-21T01:34:40;11.85;;;3.47;;
27543;SDS011;17996;51.056;3.656;2022-08-21T01:37:08;9.48;;;3.55;;
27543;SDS011;17996;51.056;3.656;2022-08-21T01:39:35;10.05;;;3.17;;
27543;SDS011;17996;51.056;3.656;2022-08-21T01:42:02;8.52;;;3.20;;
27543;SDS011;17996;51.056;3.656;2022-08-21T01:44:28;9.25;;;2.90;;
27543;SDS011;17996;51.056;3.656;2022-08-21T01:46:55;10.00;;;3.83;;
27543;SDS011;17996;51.056;3.656;2022-08-21T01:49:22;14.13;;;3.42;;
27543;SDS011;17996;51.056;3.656;2022-08-21T01:51:48;8.25;;;3.58;;
27543;SDS011;17996;51.056;3.656;2022-08-21T01:54:13;12.90;;;3.92;;
27543;SDS011;17996;51.056;3.656;2022-08-21T01:56:43;9.98;;;3.30;;
27543;SDS011;17996;51.056;3.656;2022-08-21T01:59:11;11.15;;;3.33;;
27543;SDS011;17996;51.056;3.656;2022-08-21T02:01:37;15.85;;;3.78;;
27543;SDS011;17996;51.056;3.656;2022-08-21T02:04:04;8.80;;;4.00;;
27543;SDS011;17996;51.056;3.656;2022-08-21T02:06:31;11.77;;;3.50;;
27543;SDS011;17996;51.056;3.656;2022-08-21T02:08:57;10.23;;;3.40;;
27543;SDS011;17996;51.056;3.656;2022-08-21T02:11:22;9.50;;;3.10;;
27543;SDS011;17996;51.056;3.656;2022-08-21T02:13:48;13.45;;;3.38;;
27543;SDS011;17996;51.056;3.656;2022-08-21T02:16:14;11.23;;;3.97;;
27543;SDS011;17996;51.056;3.656;2022-08-21T02:18:40;13.88;;;3.70;;
27543;SDS011;17996;51.056;3.656;2022-08-21T02:21:06;10.40;;;3.70;;
27543;SDS011;17996;51.056;3.656;2022-08-21T02:23:32;8.93;;;3.60;;
27543;SDS011;17996;51.056;3.656;2022-08-21T02:25:59;9.02;;;2.92;;
27543;SDS011;17996;51.056;3.656;2022-08-21T02:28:26;12.45;;;3.50;;
27543;SDS011;17996;51.056;3.656;2022-08-21T02:30:52;10.98;;;3.70;;
27543;SDS011;17996;51.056;3.656;2022-08-21T02:33:19;10.38;;;3.58;;
27543;SDS011;17996;51.056;3.656;2022-08-21T02:35:45;11.25;;;3.67;;
27543;SDS011;17996;51.056;3.656;2022-08-21T02:38:17;11.55;;;4.00;;
27543;SDS011;17996;51.056;3.656;2022-08-21T02:40:48;13.93;;;3.50;;
27543;SDS011;17996;51.056;3.656;2022-08-21T02:43:16;8.67;;;3.57;;
27543;SDS011;17996;51.056;3.656;2022-08-21T02:45:44;11.05;;;3.42;;
27543;SDS011;17996;51.056;3.656;2022-08-21T02:48:11;12.70;;;4.00;;
27543;SDS011;17996;51.056;3.656;2022-08-21T02:50:42;8.45;;;3.75;;
27543;SDS011;17996;51.056;3.656;2022-08-21T02:53:10;10.30;;;3.63;;
27543;SDS011;17996;51.056;3.656;2022-08-21T02:55:39;12.65;;;4.10;;
27543;SDS011;17996;51.056;3.656;2022-08-21T02:58:06;12.80;;;3.90;;
27543;SDS011;17996;51.056;3.656;2022-08-21T03:00:33;9.18;;;3.15;;
27543;SDS011;17996;51.056;3.656;2022-08-21T03:03:00;13.60;;;3.78;;
27543;SDS011;17996;51.056;3.656;2022-08-21T03:05:26;12.95;;;3.17;;
27543;SDS011;17996;51.056;3.656;2022-08-21T03:07:53;10.93;;;3.45;;
27543;SDS011;17996;51.056;3.656;2022-08-21T03:10:20;19.40;;;3.67;;
27543;SDS011;17996;51.056;3.656;2022-08-21T03:12:47;9.60;;;3.08;;
27543;SDS011;17996;51.056;3.656;2022-08-21T03:15:15;17.38;;;4.32;;
27543;SDS011;17996;51.056;3.656;2022-08-21T03:17:44;15.13;;;3.88;;
27543;SDS011;17996;51.056;3.656;2022-08-21T03:20:12;11.10;;;3.92;;
27543;SDS011;17996;51.056;3.656;2022-08-21T03:22:40;16.20;;;4.18;;
27543;SDS011;17996;51.056;3.656;2022-08-21T03:25:06;15.27;;;4.35;;
27543;SDS011;17996;51.056;3.656;2022-08-21T03:27:33;12.93;;;3.80;;
27543;SDS011;17996;51.056;3.656;2022-08-21T03:29:59;12.02;;;3.47;;
27543;SDS011;17996;51.056;3.656;2022-08-21T03:32:25;13.35;;;4.18;;
27543;SDS011;17996;51.056;3.656;2022-08-21T03:34:51;14.82;;;3.60;;
27543;SDS011;17996;51.056;3.656;2022-08-21T03:37:17;8.68;;;3.35;;
27543;SDS011;17996;51.056;3.656;2022-08-21T03:39:43;9.77;;;3.35;;
27543;SDS011;17996;51.056;3.656;2022-08-21T03:42:09;14.65;;;3.88;;
27543;SDS011;17996;51.056;3.656;2022-08-21T03:44:36;12.90;;;3.70;;
27543;SDS011;17996;51.056;3.656;2022-08-21T03:47:02;11.35;;;3.95;;
27543;SDS011;17996;51.056;3.656;2022-08-21T03:49:28;11.77;;;3.58;;
27543;SDS011;17996;51.056;3.656;2022-08-21T03:51:54;13.57;;;3.95;;
27543;SDS011;17996;51.056;3.656;2022-08-21T03:54:20;10.55;;;3.88;;
27543;SDS011;17996;51.056;3.656;2022-08-21T03:56:46;11.23;;;3.72;;
27543;SDS011;17996;51.056;3.656;2022-08-21T03:59:11;9.98;;;3.35;;
27543;SDS011;17996;51.056;3.656;2022-08-21T04:01:37;14.93;;;3.65;;
27543;SDS011;17996;51.056;3.656;2022-08-21T04:04:04;17.83;;;3.88;;
27543;SDS011;17996;51.056;3.656;2022-08-21T04:06:31;7.78;;;2.97;;
27543;SDS011;17996;51.056;3.656;2022-08-21T04:08:57;16.63;;;3.30;;
27543;SDS011;17996;51.056;3.656;2022-08-21T04:11:23;10.93;;;3.42;;
27543;SDS011;17996;51.056;3.656;2022-08-21T04:13:48;13.13;;;4.38;;
27543;SDS011;17996;51.056;3.656;2022-08-21T04:16:14;9.07;;;3.40;;
27543;SDS011;17996;51.056;3.656;2022-08-21T04:18:40;12.35;;;3.63;;
27543;SDS011;17996;51.056;3.656;2022-08-21T04:21:07;11.98;;;4.00;;
27543;SDS011;17996;51.056;3.656;2022-08-21T04:23:35;15.13;;;4.28;;
27543;SDS011;17996;51.056;3.656;2022-08-21T04:26:01;20.40;;;3.65;;
27543;SDS011;17996;51.056;3.656;2022-08-21T04:28:27;13.10;;;3.45;;
27543;SDS011;17996;51.056;3.656;2022-08-21T04:30:53;11.23;;;3.95;;
27543;SDS011;17996;51.056;3.656;2022-08-21T04:33:20;15.60;;;4.40;;
27543;SDS011;17996;51.056;3.656;2022-08-21T04:35:47;13.70;;;3.70;;
27543;SDS011;17996;51.056;3.656;2022-08-21T04:38:13;13.10;;;4.03;;
27543;SDS011;17996;51.056;3.656;2022-08-21T04:40:39;12.00;;;3.72;;
27543;SDS011;17996;51.056;3.656;2022-08-21T04:43:05;11.43;;;3.35;;
27543;SDS011;17996;51.056;3.656;2022-08-21T04:45:38;15.43;;;4.20;;
27543;SDS011;17996;51.056;3.656;2022-08-21T04:48:10;13.52;;;4.00;;
27543;SDS011;17996;51.056;3.656;2022-08-21T04:53:08;12.52;;;4.47;;
27543;SDS011;17996;51.056;3.656;2022-08-21T04:55:43;12.80;;;4.53;;
27543;SDS011;17996;51.056;3.656;2022-08-21T04:58:11;7.50;;;3.67;;
27543;SDS011;17996;51.056;3.656;2022-08-21T05:00:39;14.60;;;4.35;;
27543;SDS011;17996;51.056;3.656;2022-08-21T05:03:05;16.05;;;4.57;;
27543;SDS011;17996;51.056;3.656;2022-08-21T05:05:32;18.05;;;4.18;;
27543;SDS011;17996;51.056;3.656;2022-08-21T05:07:59;17.95;;;5.03;;
27543;SDS011;17996;51.056;3.656;2022-08-21T05:10:27;17.17;;;4.68;;
27543;SDS011;17996;51.056;3.656;2022-08-21T05:12:53;9.23;;;3.80;;
27543;SDS011;17996;51.056;3.656;2022-08-21T05:15:19;11.82;;;3.95;;
27543;SDS011;17996;51.056;3.656;2022-08-21T05:17:45;13.93;;;4.05;;
27543;SDS011;17996;51.056;3.656;2022-08-21T05:20:12;16.25;;;4.53;;
27543;SDS011;17996;51.056;3.656;2022-08-21T05:22:38;7.22;;;4.32;;
27543;SDS011;17996;51.056;3.656;2022-08-21T05:25:05;15.93;;;5.25;;
27543;SDS011;17996;51.056;3.656;2022-08-21T05:27:32;12.27;;;3.78;;
27543;SDS011;17996;51.056;3.656;2022-08-21T05:29:57;20.95;;;4.78;;
27543;SDS011;17996;51.056;3.656;2022-08-21T05:32:24;16.67;;;4.20;;
27543;SDS011;17996;51.056;3.656;2022-08-21T05:34:50;18.98;;;4.03;;
27543;SDS011;17996;51.056;3.656;2022-08-21T05:37:16;14.15;;;4.63;;
27543;SDS011;17996;51.056;3.656;2022-08-21T05:39:42;16.45;;;4.00;;
27543;SDS011;17996;51.056;3.656;2022-08-21T05:42:07;17.50;;;3.90;;
27543;SDS011;17996;51.056;3.656;2022-08-21T05:44:33;10.23;;;3.90;;
27543;SDS011;17996;51.056;3.656;2022-08-21T05:47:03;19.67;;;4.63;;
27543;SDS011;17996;51.056;3.656;2022-08-21T05:49:32;15.80;;;4.53;;
27543;SDS011;17996;51.056;3.656;2022-08-21T05:51:58;16.15;;;4.28;;
27543;SDS011;17996;51.056;3.656;2022-08-21T05:54:23;16.13;;;4.63;;
27543;SDS011;17996;51.056;3.656;2022-08-21T05:56:50;14.65;;;4.32;;
27543;SDS011;17996;51.056;3.656;2022-08-21T05:59:16;17.92;;;4.80;;
27543;SDS011;17996;51.056;3.656;2022-08-21T06:01:43;19.35;;;4.78;;
27543;SDS011;17996;51.056;3.656;2022-08-21T06:04:10;17.20;;;4.78;;
27543;SDS011;17996;51.056;3.656;2022-08-21T06:06:36;23.50;;;5.50;;
27543;SDS011;17996;51.056;3.656;2022-08-21T06:09:02;15.75;;;4.45;;
27543;SDS011;17996;51.056;3.656;2022-08-21T06:11:28;16.73;;;4.70;;
27543;SDS011;17996;51.056;3.656;2022-08-21T06:13:54;19.20;;;4.45;;
27543;SDS011;17996;51.056;3.656;2022-08-21T06:16:20;18.90;;;4.55;;
27543;SDS011;17996;51.056;3.656;2022-08-21T06:18:48;21.60;;;5.60;;
27543;SDS011;17996;51.056;3.656;2022-08-21T06:21:14;19.67;;;4.78;;
27543;SDS011;17996;51.056;3.656;2022-08-21T06:23:40;22.25;;;4.88;;
27543;SDS011;17996;51.056;3.656;2022-08-21T06:26:07;17.77;;;4.63;;
27543;SDS011;17996;51.056;3.656;2022-08-21T06:28:34;19.58;;;5.15;;
27543;SDS011;17996;51.056;3.656;2022-08-21T06:31:00;20.85;;;3.50;;
27543;SDS011;17996;51.056;3.656;2022-08-21T06:33:26;16.38;;;4.78;;
27543;SDS011;17996;51.056;3.656;2022-08-21T06:35:52;13.75;;;3.72;;
27543;SDS011;17996;51.056;3.656;2022-08-21T06:38:18;10.35;;;3.53;;
27543;SDS011;17996;51.056;3.656;2022-08-21T06:40:44;14.82;;;3.70;;
27543;SDS011;17996;51.056;3.656;2022-08-21T06:43:11;16.45;;;4.43;;
27543;SDS011;17996;51.056;3.656;2022-08-21T06:45:39;9.43;;;3.85;;
27543;SDS011;17996;51.056;3.656;2022-08-21T06:48:06;14.68;;;3.97;;
27543;SDS011;17996;51.056;3.656;2022-08-21T06:50:34;19.95;;;4.82;;
27543;SDS011;17996;51.056;3.656;2022-08-21T06:53:04;13.48;;;4.03;;
27543;SDS011;17996;51.056;3.656;2022-08-21T06:55:33;17.92;;;5.00;;
27543;SDS011;17996;51.056;3.656;2022-08-21T06:58:00;17.80;;;4.38;;
27543;SDS011;17996;51.056;3.656;2022-08-21T07:00:25;17.55;;;3.80;;
27543;SDS011;17996;51.056;3.656;2022-08-21T07:02:51;23.63;;;5.00;;
27543;SDS011;17996;51.056;3.656;2022-08-21T07:05:17;20.00;;;5.65;;
27543;SDS011;17996;51.056;3.656;2022-08-21T07:07:43;23.00;;;5.20;;
27543;SDS011;17996;51.056;3.656;2022-08-21T07:10:10;15.48;;;4.45;;
27543;SDS011;17996;51.056;3.656;2022-08-21T07:12:36;16.17;;;4.82;;
27543;SDS011;17996;51.056;3.656;2022-08-21T07:15:01;16.10;;;3.80;;
27543;SDS011;17996;51.056;3.656;2022-08-21T07:17:27;19.38;;;4.15;;
27543;SDS011;17996;51.056;3.656;2022-08-21T07:19:53;21.30;;;4.65;;
27543;SDS011;17996;51.056;3.656;2022-08-21T07:22:19;24.33;;;4.70;;
27543;SDS011;17996;51.056;3.656;2022-08-21T07:24:46;15.20;;;4.85;;
27543;SDS011;17996;51.056;3.656;2022-08-21T07:27:12;22.70;;;5.13;;
27543;SDS011;17996;51.056;3.656;2022-08-21T07:29:37;14.63;;;4.50;;
27543;SDS011;17996;51.056;3.656;2022-08-21T07:32:04;22.73;;;5.18;;
27543;SDS011;17996;51.056;3.656;2022-08-21T07:34:30;28.13;;;5.40;;
27543;SDS011;17996;51.056;3.656;2022-08-21T07:36:56;17.60;;;4.85;;
27543;SDS011;17996;51.056;3.656;2022-08-21T07:39:24;15.23;;;4.25;;
27543;SDS011;17996;51.056;3.656;2022-08-21T07:41:50;15.15;;;4.88;;
27543;SDS011;17996;51.056;3.656;2022-08-21T07:44:15;18.10;;;4.70;;
27543;SDS011;17996;51.056;3.656;2022-08-21T07:46:41;13.43;;;4.40;;
27543;SDS011;17996;51.056;3.656;2022-08-21T07:49:07;21.35;;;5.00;;
27543;SDS011;17996;51.056;3.656;2022-08-21T07:51:33;19.65;;;6.05;;
27543;SDS011;17996;51.056;3.656;2022-08-21T07:53:59;29.63;;;5.90;;
27543;SDS011;17996;51.056;3.656;2022-08-21T07:56:25;17.20;;;4.80;;
27543;SDS011;17996;51.056;3.656;2022-08-21T07:58:52;18.13;;;4.82;;
27543;SDS011;17996;51.056;3.656;2022-08-21T08:01:18;22.35;;;5.82;;
27543;SDS011;17996;51.056;3.656;2022-08-21T08:03:44;26.40;;;5.30;;
27543;SDS011;17996;51.056;3.656;2022-08-21T08:06:10;21.48;;;6.38;;
27543;SDS011;17996;51.056;3.656;2022-08-21T08:08:40;16.73;;;5.68;;
27543;SDS011;17996;51.056;3.656;2022-08-21T08:11:08;19.95;;;5.75;;
27543;SDS011;17996;51.056;3.656;2022-08-21T08:13:45;20.13;;;5.40;;
27543;SDS011;17996;51.056;3.656;2022-08-21T08:16:16;21.88;;;6.70;;
27543;SDS011;17996;51.056;3.656;2022-08-21T08:18:43;18.88;;;5.28;;
27543;SDS011;17996;51.056;3.656;2022-08-21T08:21:10;16.08;;;6.20;;
27543;SDS011;17996;51.056;3.656;2022-08-21T08:23:37;27.83;;;6.38;;
27543;SDS011;17996;51.056;3.656;2022-08-21T08:26:03;18.85;;;5.30;;
27543;SDS011;17996;51.056;3.656;2022-08-21T08:28:31;16.98;;;6.80;;
27543;SDS011;17996;51.056;3.656;2022-08-21T08:30:58;23.63;;;5.90;;
27543;SDS011;17996;51.056;3.656;2022-08-21T08:33:24;22.80;;;7.00;;
27543;SDS011;17996;51.056;3.656;2022-08-21T08:35:51;15.60;;;5.90;;
27543;SDS011;17996;51.056;3.656;2022-08-21T08:38:17;21.25;;;6.07;;
27543;SDS011;17996;51.056;3.656;2022-08-21T08:40:50;15.18;;;5.63;;
27543;SDS011;17996;51.056;3.656;2022-08-21T08:43:28;23.77;;;6.10;;
27543;SDS011;17996;51.056;3.656;2022-08-21T08:51:39;22.15;;;5.20;;
27543;SDS011;17996;51.056;3.656;2022-08-21T08:54:12;20.60;;;4.20;;
27543;SDS011;17996;51.056;3.656;2022-08-21T08:56:43;16.38;;;4.82;;
27543;SDS011;17996;51.056;3.656;2022-08-21T08:59:15;21.35;;;5.03;;
27543;SDS011;17996;51.056;3.656;2022-08-21T09:01:41;15.63;;;4.05;;
27543;SDS011;17996;51.056;3.656;2022-08-21T09:04:07;21.67;;;4.03;;
27543;SDS011;17996;51.056;3.656;2022-08-21T09:06:40;15.15;;;3.75;;
27543;SDS011;17996;51.056;3.656;2022-08-21T09:09:30;9.23;;;3.33;;
27543;SDS011;17996;51.056;3.656;2022-08-21T09:12:18;17.20;;;4.32;;
27543;SDS011;17996;51.056;3.656;2022-08-21T09:20:32;27.17;;;4.45;;
27543;SDS011;17996;51.056;3.656;2022-08-21T09:25:55;21.20;;;3.70;;
27543;SDS011;17996;51.056;3.656;2022-08-21T09:28:35;19.98;;;3.78;;
27543;SDS011;17996;51.056;3.656;2022-08-21T09:31:08;18.42;;;3.85;;
27543;SDS011;17996;51.056;3.656;2022-08-21T09:33:43;18.13;;;3.58;;
27543;SDS011;17996;51.056;3.656;2022-08-21T09:36:09;18.65;;;3.70;;
27543;SDS011;17996;51.056;3.656;2022-08-21T09:38:36;14.43;;;3.67;;
27543;SDS011;17996;51.056;3.656;2022-08-21T09:41:07;15.93;;;3.70;;
27543;SDS011;17996;51.056;3.656;2022-08-21T09:43:35;13.40;;;2.92;;
27543;SDS011;17996;51.056;3.656;2022-08-21T09:46:10;15.68;;;3.92;;
27543;SDS011;17996;51.056;3.656;2022-08-21T09:48:50;11.40;;;3.10;;
27543;SDS011;17996;51.056;3.656;2022-08-21T09:51:21;18.95;;;4.05;;
27543;SDS011;17996;51.056;3.656;2022-08-21T09:54:07;13.85;;;3.80;;
27543;SDS011;17996;51.056;3.656;2022-08-21T09:56:40;16.15;;;3.22;;
27543;SDS011;17996;51.056;3.656;2022-08-21T09:59:35;15.90;;;3.50;;
27543;SDS011;17996;51.056;3.656;2022-08-21T10:02:07;16.55;;;3.97;;
27543;SDS011;17996;51.056;3.656;2022-08-21T10:04:56;28.83;;;5.18;;
27543;SDS011;17996;51.056;3.656;2022-08-21T10:07:24;14.75;;;2.70;;
27543;SDS011;17996;51.056;3.656;2022-08-21T10:09:59;13.27;;;2.85;;
27543;SDS011;17996;51.056;3.656;2022-08-21T10:12:56;21.85;;;3.75;;
27543;SDS011;17996;51.056;3.656;2022-08-21T10:15:34;22.35;;;4.45;;
27543;SDS011;17996;51.056;3.656;2022-08-21T10:18:35;16.92;;;3.90;;
27543;SDS011;17996;51.056;3.656;2022-08-21T10:37:45;16.45;;;3.58;;
27543;SDS011;17996;51.056;3.656;2022-08-21T10:40:40;14.07;;;3.25;;
27543;SDS011;17996;51.056;3.656;2022-08-21T10:46:08;21.38;;;3.97;;
27543;SDS011;17996;51.056;3.656;2022-08-21T10:51:46;15.95;;;3.45;;
27543;SDS011;17996;51.056;3.656;2022-08-21T10:57:32;18.70;;;3.50;;
27543;SDS011;17996;51.056;3.656;2022-08-21T11:00:06;16.48;;;4.53;;
27543;SDS011;17996;51.056;3.656;2022-08-21T11:02:42;10.23;;;2.88;;
27543;SDS011;17996;51.056;3.656;2022-08-21T11:05:11;13.57;;;3.08;;
27543;SDS011;17996;51.056;3.656;2022-08-21T11:10:33;14.60;;;3.65;;
27543;SDS011;17996;51.056;3.656;2022-08-21T11:13:16;16.33;;;3.20;;
27543;SDS011;17996;51.056;3.656;2022-08-21T11:18:40;13.88;;;3.72;;
27543;SDS011;17996;51.056;3.656;2022-08-21T11:21:32;19.60;;;3.78;;
27543;SDS011;17996;51.056;3.656;2022-08-21T11:24:15;13.98;;;3.40;;
27543;SDS011;17996;51.056;3.656;2022-08-21T11:27:27;21.35;;;3.85;;
27543;SDS011;17996;51.056;3.656;2022-08-21T11:29:58;15.07;;;3.10;;
27543;SDS011;17996;51.056;3.656;2022-08-21T11:32:42;14.18;;;3.78;;
27543;SDS011;17996;51.056;3.656;2022-08-21T11:41:05;15.52;;;3.05;;
27543;SDS011;17996;51.056;3.656;2022-08-21T11:44:07;17.60;;;3.60;;
27543;SDS011;17996;51.056;3.656;2022-08-21T11:49:59;18.05;;;3.45;;
27543;SDS011;17996;51.056;3.656;2022-08-21T11:55:32;17.55;;;3.30;;
27543;SDS011;17996;51.056;3.656;2022-08-21T11:58:08;11.80;;;3.22;;
27543;SDS011;17996;51.056;3.656;2022-08-21T12:04:10;16.88;;;3.20;;
27543;SDS011;17996;51.056;3.656;2022-08-21T12:06:47;13.57;;;3.35;;
27543;SDS011;17996;51.056;3.656;2022-08-21T12:11:50;14.85;;;3.38;;
27543;SDS011;17996;51.056;3.656;2022-08-21T12:14:34;16.77;;;3.33;;
27543;SDS011;17996;51.056;3.656;2022-08-21T12:17:16;14.45;;;3.38;;
27543;SDS011;17996;51.056;3.656;2022-08-21T12:20:00;18.77;;;4.20;;
27543;SDS011;17996;51.056;3.656;2022-08-21T12:22:39;18.73;;;3.42;;
27543;SDS011;17996;51.056;3.656;2022-08-21T12:25:06;14.18;;;3.05;;
27543;SDS011;17996;51.056;3.656;2022-08-21T12:27:44;17.52;;;3.15;;
27543;SDS011;17996;51.056;3.656;2022-08-21T12:30:21;18.73;;;3.35;;
27543;SDS011;17996;51.056;3.656;2022-08-21T12:33:04;10.98;;;3.28;;
27543;SDS011;17996;51.056;3.656;2022-08-21T12:35:43;15.60;;;3.92;;
27543;SDS011;17996;51.056;3.656;2022-08-21T12:41:11;17.35;;;3.90;;
27543;SDS011;17996;51.056;3.656;2022-08-21T12:43:43;20.80;;;5.35;;
27543;SDS011;17996;51.056;3.656;2022-08-21T12:46:27;19.75;;;3.30;;
27543;SDS011;17996;51.056;3.656;2022-08-21T12:49:14;22.13;;;3.47;;
27543;SDS011;17996;51.056;3.656;2022-08-21T12:52:35;14.77;;;3.03;;
27543;SDS011;17996;51.056;3.656;2022-08-21T12:55:00;17.98;;;3.85;;
27543;SDS011;17996;51.056;3.656;2022-08-21T12:57:28;14.48;;;3.28;;
27543;SDS011;17996;51.056;3.656;2022-08-21T12:59:56;27.48;;;3.75;;
27543;SDS011;17996;51.056;3.656;2022-08-21T13:02:25;17.33;;;3.28;;
27543;SDS011;17996;51.056;3.656;2022-08-21T13:04:54;17.85;;;3.67;;
27543;SDS011;17996;51.056;3.656;2022-08-21T13:07:24;13.95;;;3.75;;
27543;SDS011;17996;51.056;3.656;2022-08-21T13:09:55;16.77;;;3.60;;
27543;SDS011;17996;51.056;3.656;2022-08-21T13:12:25;15.80;;;3.60;;
27543;SDS011;17996;51.056;3.656;2022-08-21T13:14:55;16.52;;;3.58;;
27543;SDS011;17996;51.056;3.656;2022-08-21T13:17:23;15.23;;;3.63;;
27543;SDS011;17996;51.056;3.656;2022-08-21T13:20:02;14.77;;;3.28;;
27543;SDS011;17996;51.056;3.656;2022-08-21T13:22:40;17.42;;;3.53;;
27543;SDS011;17996;51.056;3.656;2022-08-21T13:25:14;11.75;;;3.20;;
27543;SDS011;17996;51.056;3.656;2022-08-21T13:27:43;11.32;;;2.80;;
27543;SDS011;17996;51.056;3.656;2022-08-21T13:30:19;20.70;;;4.40;;
27543;SDS011;17996;51.056;3.656;2022-08-21T13:32:48;16.10;;;3.67;;
27543;SDS011;17996;51.056;3.656;2022-08-21T13:35:17;11.32;;;3.20;;
27543;SDS011;17996;51.056;3.656;2022-08-21T13:37:46;18.50;;;4.18;;
27543;SDS011;17996;51.056;3.656;2022-08-21T13:40:17;16.30;;;4.15;;
27543;SDS011;17996;51.056;3.656;2022-08-21T13:42:47;9.95;;;3.30;;
27543;SDS011;17996;51.056;3.656;2022-08-21T13:45:22;17.73;;;3.60;;
27543;SDS011;17996;51.056;3.656;2022-08-21T13:47:51;23.33;;;4.72;;
27543;SDS011;17996;51.056;3.656;2022-08-21T13:50:21;18.40;;;4.03;;
27543;SDS011;17996;51.056;3.656;2022-08-21T13:52:56;12.23;;;3.25;;
27543;SDS011;17996;51.056;3.656;2022-08-21T13:55:25;17.73;;;3.88;;
27543;SDS011;17996;51.056;3.656;2022-08-21T13:58:02;17.00;;;3.40;;
27543;SDS011;17996;51.056;3.656;2022-08-21T14:00:32;14.82;;;3.95;;
27543;SDS011;17996;51.056;3.656;2022-08-21T14:03:06;23.30;;;4.68;;
27543;SDS011;17996;51.056;3.656;2022-08-21T14:05:43;17.50;;;3.90;;
27543;SDS011;17996;51.056;3.656;2022-08-21T14:08:11;17.77;;;3.85;;
27543;SDS011;17996;51.056;3.656;2022-08-21T14:10:49;15.00;;;3.40;;
27543;SDS011;17996;51.056;3.656;2022-08-21T14:13:32;12.68;;;3.20;;
27543;SDS011;17996;51.056;3.656;2022-08-21T14:16:03;21.38;;;4.00;;
27543;SDS011;17996;51.056;3.656;2022-08-21T14:18:46;16.00;;;4.50;;
27543;SDS011;17996;51.056;3.656;2022-08-21T14:21:38;18.70;;;4.50;;
27543;SDS011;17996;51.056;3.656;2022-08-21T14:24:10;16.30;;;4.13;;
27543;SDS011;17996;51.056;3.656;2022-08-21T14:29:24;22.80;;;4.13;;
27543;SDS011;17996;51.056;3.656;2022-08-21T14:34:26;16.92;;;4.13;;
27543;SDS011;17996;51.056;3.656;2022-08-21T14:36:53;23.80;;;4.38;;
27543;SDS011;17996;51.056;3.656;2022-08-21T14:39:21;34.78;;;4.15;;
27543;SDS011;17996;51.056;3.656;2022-08-21T14:41:47;23.35;;;3.58;;
27543;SDS011;17996;51.056;3.656;2022-08-21T14:44:17;26.10;;;3.90;;
27543;SDS011;17996;51.056;3.656;2022-08-21T14:46:44;22.55;;;3.58;;
27543;SDS011;17996;51.056;3.656;2022-08-21T14:49:11;22.58;;;4.15;;
27543;SDS011;17996;51.056;3.656;2022-08-21T14:51:37;23.45;;;3.25;;
27543;SDS011;17996;51.056;3.656;2022-08-21T14:54:04;21.73;;;4.05;;
27543;SDS011;17996;51.056;3.656;2022-08-21T14:56:32;15.57;;;3.10;;
27543;SDS011;17996;51.056;3.656;2022-08-21T14:59:00;16.52;;;3.63;;
27543;SDS011;17996;51.056;3.656;2022-08-21T15:01:29;16.15;;;4.13;;
27543;SDS011;17996;51.056;3.656;2022-08-21T15:03:56;11.55;;;3.40;;
27543;SDS011;17996;51.056;3.656;2022-08-21T15:06:22;17.55;;;3.30;;
27543;SDS011;17996;51.056;3.656;2022-08-21T15:08:47;14.43;;;3.45;;
27543;SDS011;17996;51.056;3.656;2022-08-21T15:11:18;16.13;;;3.35;;
27543;SDS011;17996;51.056;3.656;2022-08-21T15:13:46;17.60;;;3.78;;
27543;SDS011;17996;51.056;3.656;2022-08-21T15:16:14;17.08;;;3.83;;
27543;SDS011;17996;51.056;3.656;2022-08-21T15:18:40;17.48;;;4.07;;
27543;SDS011;17996;51.056;3.656;2022-08-21T15:21:07;14.88;;;3.33;;
27543;SDS011;17996;51.056;3.656;2022-08-21T15:23:32;17.23;;;3.85;;
27543;SDS011;17996;51.056;3.656;2022-08-21T15:25:58;15.05;;;4.30;;
27543;SDS011;17996;51.056;3.656;2022-08-21T15:28:24;14.32;;;3.78;;
27543;SDS011;17996;51.056;3.656;2022-08-21T15:30:50;20.58;;;4.55;;
27543;SDS011;17996;51.056;3.656;2022-08-21T15:33:17;15.02;;;3.55;;
27543;SDS011;17996;51.056;3.656;2022-08-21T15:35:43;13.88;;;3.67;;
27543;SDS011;17996;51.056;3.656;2022-08-21T15:38:10;18.77;;;3.72;;
27543;SDS011;17996;51.056;3.656;2022-08-21T15:40:37;13.27;;;3.08;;
27543;SDS011;17996;51.056;3.656;2022-08-21T15:43:04;21.50;;;3.42;;
27543;SDS011;17996;51.056;3.656;2022-08-21T15:45:31;23.50;;;3.58;;
27543;SDS011;17996;51.056;3.656;2022-08-21T15:47:58;13.13;;;2.90;;
27543;SDS011;17996;51.056;3.656;2022-08-21T15:50:24;13.80;;;3.25;;
27543;SDS011;17996;51.056;3.656;2022-08-21T15:52:52;24.92;;;4.38;;
27543;SDS011;17996;51.056;3.656;2022-08-21T15:55:18;12.90;;;3.58;;
27543;SDS011;17996;51.056;3.656;2022-08-21T15:57:46;16.27;;;3.58;;
27543;SDS011;17996;51.056;3.656;2022-08-21T16:00:14;15.75;;;3.40;;
27543;SDS011;17996;51.056;3.656;2022-08-21T16:02:43;22.42;;;4.07;;
27543;SDS011;17996;51.056;3.656;2022-08-21T16:05:11;15.80;;;3.28;;